Time;durP1;ratioP1;P1;durP2;ratioP2;P2;SDS_P1;SDS_P2;PMS_P1;PMS_P2;Temp;Humidity;BMP_temperature;BMP_pressure;BME280_temperature;BME280_humidity;BME280_pressure;Samples;Min_cycle;Max_cycle;Signal;HPM_P1;HPM_P2
2023/01/12 00:01:20;;;;;;;;;4.00;2.75;;;;;8.00;79.70;101779.69;4997322;28;45728;-70
2023/01/12 00:03:45;;;;;;;;;2.00;1.25;;;;;8.00;79.83;101783.97;5005023;28;46027;-70
2023/01/12 00:06:11;;;;;;;;;15.50;12.75;;;;;7.99;79.98;101782.19;5000217;28;45352;-70
2023/01/12 00:08:37;;;;;;;;;5.50;2.75;;;;;7.94;79.84;101774.13;5000773;28;45167;-71
2023/01/12 00:11:03;;;;;;;;;15.00;11.75;;;;;7.94;79.71;101776.72;5001946;28;45578;-71
2023/01/12 00:13:29;;;;;;;;;58.25;41.75;;;;;7.90;79.81;101782.56;5000871;28;45501;-69
2023/01/12 00:18:40;;;;;;;;;18.25;14.75;;;;;7.85;79.95;101779.66;4993728;28;46275;-71
2023/01/12 00:21:06;;;;;;;;;14.75;10.50;;;;;7.83;80.07;101783.88;5000954;28;45663;-70
2023/01/12 00:23:32;;;;;;;;;11.25;8.00;;;;;7.81;80.34;101777.66;5003994;28;45450;-71
2023/01/12 00:25:57;;;;;;;;;7.00;5.50;;;;;7.80;80.02;101775.91;5001082;28;45410;-70
2023/01/12 00:28:23;;;;;;;;;2.75;2.75;;;;;7.73;80.00;101769.41;4998522;28;45305;-70
2023/01/12 00:30:48;;;;;;;;;1.25;1.00;;;;;7.71;79.78;101765.81;5004181;28;45498;-70
2023/01/12 00:33:14;;;;;;;;;1.00;1.00;;;;;7.79;79.83;101770.59;4999272;28;45760;-70
2023/01/12 00:35:39;;;;;;;;;0.67;0.00;;;;;7.77;79.78;101760.97;5000368;28;45691;-71
2023/01/12 00:38:07;;;;;;;;;0.00;0.00;;;;;7.81;79.71;101761.19;5005315;28;45286;-70
2023/01/12 00:40:35;;;;;;;;;1.00;0.25;;;;;7.83;79.47;101754.34;5001877;28;45362;-70
2023/01/12 00:45:49;;;;;;;;;1.33;0.00;;;;;7.99;79.60;101738.84;5002673;28;45414;-70
2023/01/12 00:48:15;;;;;;;;;2.00;0.00;;;;;8.02;79.64;101741.66;4999623;28;45392;-71
2023/01/12 00:50:40;;;;;;;;;1.25;1.00;;;;;8.03;79.75;101742.53;5002105;28;45496;-70
2023/01/12 00:53:06;;;;;;;;;1.25;1.25;;;;;7.99;79.13;101738.84;5001821;28;46048;-70
2023/01/12 00:55:31;;;;;;;;;8.75;7.00;;;;;7.91;79.11;101743.59;5003212;28;45408;-70
2023/01/12 00:57:57;;;;;;;;;1.25;1.25;;;;;7.76;78.91;101727.97;4990268;28;45352;-70
2023/01/12 01:00:23;;;;;;;;;1.00;1.00;;;;;7.76;79.42;101738.38;5009743;28;45404;-69
2023/01/12 01:02:48;;;;;;;;;1.75;1.00;;;;;7.76;79.02;101729.69;5003537;28;45486;-70
2023/01/12 01:05:16;;;;;;;;;15.75;13.00;;;;;7.75;79.23;101725.28;5001553;28;45368;-70
2023/01/12 01:07:42;;;;;;;;;3.75;3.25;;;;;7.72;79.66;101728.59;5004434;28;45388;-71
2023/01/12 01:10:09;;;;;;;;;7.00;6.00;;;;;7.69;79.70;101718.00;5004161;28;45428;-70
2023/01/12 01:12:34;;;;;;;;;4.50;4.50;;;;;7.69;79.68;101720.59;5001496;28;46279;-70
2023/01/12 01:15:00;;;;;;;;;6.25;2.00;;;;;7.70;79.62;101712.00;5001871;28;45541;-70
2023/01/12 01:17:27;;;;;;;;;0.75;0.25;;;;;7.70;79.88;101712.00;5007797;28;45419;-70
2023/01/12 01:19:53;;;;;;;;;1.25;0.00;;;;;7.61;79.66;101692.34;5005564;28;45518;-69
2023/01/12 01:22:20;;;;;;;;;2.25;0.75;;;;;7.72;79.94;101713.00;4999462;28;45498;-71
2023/01/12 01:24:48;;;;;;;;;0.25;0.25;;;;;7.73;79.63;101714.78;5002905;28;45456;-70
2023/01/12 01:27:14;;;;;;;;;1.00;1.00;;;;;7.73;79.61;101703.47;5019083;28;45355;-71
2023/01/12 01:29:40;;;;;;;;;1.00;1.00;;;;;7.60;79.35;101691.47;4999056;28;45630;-71
2023/01/12 01:32:06;;;;;;;;;4.50;2.25;;;;;7.67;79.42;101698.81;5000557;28;46219;-69
2023/01/12 01:34:32;;;;;;;;;4.50;2.00;;;;;7.69;79.31;101704.09;5002876;28;45521;-70
2023/01/12 01:36:58;;;;;;;;;1.75;1.00;;;;;7.67;79.64;101698.81;4999955;28;45438;-69
2023/01/12 01:39:24;;;;;;;;;3.00;2.00;;;;;7.67;79.82;101698.81;5008016;28;45388;-70
2023/01/12 01:41:49;;;;;;;;;1.50;1.50;;;;;7.68;79.77;101705.81;5003667;28;46262;-71
2023/01/12 01:44:30;;;;;;;;;0.50;0.00;;;;;7.68;79.59;101689.28;5000653;28;45561;-70
2023/01/12 01:47:02;;;;;;;;;0.00;0.00;;;;;7.69;79.04;101689.38;5003468;28;45388;-70
2023/01/12 01:49:39;;;;;;;;;0.00;0.00;;;;;7.69;79.14;101693.69;5007321;28;45684;-70
2023/01/12 01:52:11;;;;;;;;;2.25;0.00;;;;;7.64;79.18;101688.22;4986964;28;45482;-71
2023/01/12 01:54:45;;;;;;;;;0.00;0.00;;;;;7.66;78.99;101691.81;4995881;28;45515;-71
2023/01/12 01:57:14;;;;;;;;;0.00;0.00;;;;;7.64;78.94;101690.84;5005814;28;45543;-71
2023/01/12 01:59:43;;;;;;;;;1.00;0.00;;;;;7.64;79.20;101698.63;5003694;28;45628;-71
2023/01/12 02:02:10;;;;;;;;;1.00;0.00;;;;;7.63;78.77;101691.63;5007343;28;46268;-70
2023/01/12 02:04:35;;;;;;;;;0.25;0.00;;;;;7.63;78.98;101706.34;5001946;28;45510;-70
2023/01/12 02:07:02;;;;;;;;;0.25;0.00;;;;;7.42;79.12;101675.66;5008599;28;45347;-70
2023/01/12 02:09:29;;;;;;;;;1.75;1.00;;;;;7.60;79.27;101706.13;4998012;28;45297;-69
2023/01/12 02:17:58;;;;;;;;;1.00;0.00;;;;;7.52;79.55;101706.59;5004705;28;45542;-70
2023/01/12 02:20:34;;;;;;;;;1.00;1.00;;;;;7.49;79.47;101709.00;4996372;28;45487;-70
2023/01/12 02:23:40;;;;;;;;;3.50;2.00;;;;;7.44;79.69;101704.31;4997367;28;45400;-70
2023/01/12 02:26:23;;;;;;;;;2.00;0.00;;;;;7.45;79.82;101706.13;4997754;28;45467;-70
2023/01/12 02:29:11;;;;;;;;;0.25;0.25;;;;;7.44;79.68;101705.22;4998141;28;45486;-71
2023/01/12 02:31:39;;;;;;;;;1.00;1.00;;;;;7.44;79.66;101704.31;5014382;28;45377;-71
2023/01/12 02:34:36;;;;;;;;;0.00;0.00;;;;;7.43;79.75;101702.53;5016007;28;45944;-70
2023/01/12 02:37:19;;;;;;;;;0.00;0.00;;;;;7.42;79.79;101706.84;4998162;28;45419;-71
2023/01/12 02:40:00;;;;;;;;;0.00;0.00;;;;;7.28;79.69;101682.59;4997389;28;45456;-71
2023/01/12 02:43:00;;;;;;;;;1.00;0.00;;;;;7.39;79.60;101701.44;4998064;28;45361;-70
2023/01/12 02:45:38;;;;;;;;;0.00;0.00;;;;;7.40;78.92;101698.06;4997625;28;45352;-71
2023/01/12 02:48:58;;;;;;;;;0.00;0.00;;;;;7.36;78.89;101694.34;4997554;28;45490;-71
2023/01/12 02:51:48;;;;;;;;;0.50;0.00;;;;;7.36;79.20;101691.75;4993481;28;45415;-70
2023/01/12 02:54:18;;;;;;;;;1.00;0.00;;;;;7.36;79.09;101691.75;4978685;28;45350;-70
2023/01/12 02:56:51;;;;;;;;;1.00;0.00;;;;;7.20;78.84;101656.91;5006437;28;45601;-70
2023/01/12 02:59:21;;;;;;;;;0.00;0.00;;;;;7.42;79.40;101690.31;5003256;28;45506;-70
2023/01/12 03:01:50;;;;;;;;;0.00;0.00;;;;;7.43;79.25;101685.22;5012852;28;45493;-71
2023/01/12 03:04:18;;;;;;;;;0.00;0.00;;;;;7.40;79.48;101681.53;5003309;28;45521;-71
2023/01/12 03:07:06;;;;;;;;;1.00;0.00;;;;;7.46;79.08;101674.09;5013085;28;46061;-71
2023/01/12 03:09:36;;;;;;;;;1.00;0.00;;;;;7.47;79.24;101663.78;5015749;28;45442;-70
2023/01/12 03:12:06;;;;;;;;;0.00;0.00;;;;;7.24;79.23;101627.72;5000531;28;45486;-71
2023/01/12 03:14:35;;;;;;;;;2.00;1.00;;;;;7.46;79.36;101666.28;5017193;28;45601;-71
2023/01/12 03:17:10;;;;;;;;;0.00;0.00;;;;;7.43;79.01;101676.53;5007595;28;45339;-70
2023/01/12 03:19:39;;;;;;;;;0.50;0.00;;;;;7.42;79.02;101674.72;5017240;28;45470;-71
2023/01/12 03:22:09;;;;;;;;;0.00;0.00;;;;;7.12;78.88;101612.28;5008624;28;45461;-70
2023/01/12 03:24:39;;;;;;;;;0.00;0.00;;;;;7.37;79.11;101657.13;5012272;28;45718;-71
2023/01/12 03:27:13;;;;;;;;;0.00;0.00;;;;;7.35;79.25;101658.75;5014577;28;45281;-70
2023/01/12 03:29:48;;;;;;;;;0.00;0.00;;;;;7.34;78.83;101661.25;4997172;28;45493;-71
2023/01/12 03:32:13;;;;;;;;;0.00;0.00;;;;;7.31;78.97;101663.69;4997328;28;45509;-70
2023/01/12 03:34:39;;;;;;;;;0.00;0.00;;;;;7.31;79.11;101667.16;4996964;28;45283;-72
2023/01/12 03:37:47;;;;;;;;;0.50;0.00;;;;;7.19;79.16;101645.63;5005192;28;45394;-72
2023/01/12 03:40:24;;;;;;;;;0.25;0.00;;;;;7.30;79.59;101670.59;4992048;28;45477;-70
2023/01/12 03:43:05;;;;;;;;;1.00;0.00;;;;;7.29;79.56;101666.19;4996719;28;45339;-70
2023/01/12 03:45:58;;;;;;;;;0.00;0.00;;;;;7.24;79.40;101653.69;4996760;28;45361;-70
2023/01/12 03:48:26;;;;;;;;;1.75;0.00;;;;;7.33;78.91;101649.06;4996302;28;45444;-70
2023/01/12 03:50:56;;;;;;;;;0.00;0.00;;;;;7.37;78.67;101641.53;5011698;28;45606;-71
2023/01/12 03:53:23;;;;;;;;;0.50;0.00;;;;;7.41;78.88;101639.16;5002519;28;45354;-71
2023/01/12 03:55:55;;;;;;;;;1.00;0.00;;;;;7.44;78.92;101632.44;5005211;28;45328;-70
2023/01/12 03:58:23;;;;;;;;;0.00;0.00;;;;;7.49;78.84;101625.78;4998540;28;45551;-71
2023/01/12 04:00:48;;;;;;;;;0.00;0.00;;;;;7.53;78.69;101621.66;5014413;28;45407;-70
2023/01/12 04:03:15;;;;;;;;;2.00;0.00;;;;;7.56;78.79;101624.47;5017935;28;45351;-71
2023/01/12 04:05:43;;;;;;;;;3.25;1.25;;;;;7.45;78.68;101600.41;5008266;28;45534;-71
2023/01/12 04:08:10;;;;;;;;;4.50;3.25;;;;;7.56;78.83;101630.56;5014790;28;45481;-71
2023/01/12 04:10:35;;;;;;;;;2.50;1.75;;;;;7.57;78.43;101628.84;5002959;28;45375;-71
2023/01/12 04:13:01;;;;;;;;;0.00;0.00;;;;;7.35;78.21;101583.38;5011704;28;45526;-71
2023/01/12 04:15:27;;;;;;;;;0.75;0.00;;;;;7.62;78.16;101623.91;5010864;28;45347;-71
2023/01/12 04:17:52;;;;;;;;;1.00;0.00;;;;;7.67;78.01;101614.69;5034179;28;46331;-70
2023/01/12 04:20:19;;;;;;;;;1.00;0.00;;;;;7.72;77.87;101611.56;5002676;28;45391;-71
2023/01/12 04:22:45;;;;;;;;;3.00;2.00;;;;;7.75;77.81;101616.91;5012413;28;45423;-70
2023/01/12 04:25:18;;;;;;;;;0.75;0.75;;;;;7.76;77.66;101603.13;4999363;28;45590;-70
2023/01/12 04:28:09;;;;;;;;;0.00;0.00;;;;;7.78;77.62;101595.41;4999893;28;45254;-70
2023/01/12 04:30:35;;;;;;;;;1.00;0.00;;;;;7.81;77.53;101576.47;5012815;28;45439;-71
2023/01/12 04:33:06;;;;;;;;;1.00;0.00;;;;;7.87;77.23;101566.41;4999640;28;45451;-71
2023/01/12 04:35:32;;;;;;;;;0.00;0.00;;;;;7.96;76.69;101565.25;5019123;28;45490;-70
2023/01/12 04:37:57;;;;;;;;;2.00;0.00;;;;;7.94;76.74;101548.66;5003269;28;45987;-71
2023/01/12 04:40:23;;;;;;;;;0.00;0.00;;;;;8.03;76.43;101561.28;4995955;28;45691;-70
2023/01/12 04:43:05;;;;;;;;;0.25;0.00;;;;;8.08;76.28;101565.03;4999747;28;45491;-71
2023/01/12 04:45:33;;;;;;;;;0.75;0.00;;;;;8.07;76.32;101564.94;4999356;28;45455;-71
2023/01/12 04:48:07;;;;;;;;;0.25;0.00;;;;;7.92;76.53;101539.88;5008211;28;46337;-71
2023/01/12 04:50:33;;;;;;;;;1.50;0.50;;;;;8.04;76.33;101554.34;5018162;28;45236;-70
2023/01/12 04:53:01;;;;;;;;;0.00;0.00;;;;;8.07;76.14;101549.34;5000335;28;45569;-71
2023/01/12 04:55:27;;;;;;;;;0.25;0.25;;;;;7.95;76.05;101536.53;4997322;28;45502;-71
2023/01/12 04:57:52;;;;;;;;;1.50;0.50;;;;;7.90;75.96;101518.06;4998865;28;45507;-70
2023/01/12 05:00:19;;;;;;;;;2.50;1.25;;;;;8.02;76.11;101548.16;4996903;28;45519;-71
2023/01/12 05:02:44;;;;;;;;;3.25;3.00;;;;;7.96;76.38;101547.03;4998884;28;45505;-70
2023/01/12 05:05:10;;;;;;;;;6.00;3.25;;;;;7.91;76.47;101542.38;4984333;28;45532;-71
2023/01/12 05:07:35;;;;;;;;;6.00;6.00;;;;;7.88;76.53;101547.41;5008619;28;46390;-71
2023/01/12 05:12:45;;;;;;;;;8.00;7.00;;;;;7.76;76.83;101545.91;5018395;28;45382;-71
2023/01/12 05:15:10;;;;;;;;;12.75;9.25;;;;;7.70;76.66;101532.53;5017383;28;45352;-71
2023/01/12 05:17:36;;;;;;;;;4.25;2.00;;;;;7.72;76.54;101532.63;5017644;28;45960;-72
2023/01/12 05:20:02;;;;;;;;;0.75;0.00;;;;;7.77;76.17;101533.78;5010646;28;45538;-71
2023/01/12 05:22:27;;;;;;;;;1.25;0.00;;;;;7.73;76.65;101537.91;5009963;28;45399;-71
2023/01/12 05:24:53;;;;;;;;;2.00;1.00;;;;;7.72;76.50;101536.13;5003088;28;45455;-71
2023/01/12 05:27:18;;;;;;;;;3.75;2.00;;;;;7.69;76.71;101535.94;5014677;28;45929;-71
2023/01/12 05:29:45;;;;;;;;;2.00;1.00;;;;;7.63;76.53;101520.00;5017687;28;45851;-71
2023/01/12 05:32:10;;;;;;;;;1.75;1.00;;;;;7.57;76.99;101532.63;5007211;28;45486;-70
2023/01/12 05:34:36;;;;;;;;;2.25;1.00;;;;;7.50;76.93;101520.06;5013204;28;45405;-71
2023/01/12 05:37:01;;;;;;;;;2.00;0.00;;;;;7.45;77.16;101521.53;5005333;28;46111;-71
2023/01/12 05:39:27;;;;;;;;;1.00;0.50;;;;;7.43;77.13;101517.94;4998198;28;45503;-71
2023/01/12 05:44:36;;;;;;;;;2.00;2.00;;;;;7.33;77.31;101525.19;5002024;28;45376;-71
2023/01/12 05:47:02;;;;;;;;;4.00;3.25;;;;;7.28;77.44;101524.06;5017382;28;45934;-71
2023/01/12 05:49:27;;;;;;;;;0.00;0.00;;;;;7.19;77.23;101513.09;5017314;28;45443;-70
2023/01/12 05:51:53;;;;;;;;;1.00;0.00;;;;;7.22;77.38;101514.97;5017840;28;45491;-71
2023/01/12 05:54:18;;;;;;;;;1.25;0.00;;;;;7.20;77.53;101517.47;5001983;28;47025;-71
2023/01/12 05:56:44;;;;;;;;;1.00;1.00;;;;;7.17;77.62;101517.31;5016623;28;45466;-71
2023/01/12 05:59:10;;;;;;;;;1.50;0.00;;;;;7.14;77.53;101507.63;5017101;28;45362;-72
2023/01/12 06:01:37;;;;;;;;;0.75;0.00;;;;;7.13;77.21;101502.34;5016752;28;45399;-71
2023/01/12 06:04:03;;;;;;;;;0.75;0.00;;;;;7.12;77.39;101504.06;5001107;28;45438;-71
2023/01/12 06:06:30;;;;;;;;;1.00;0.00;;;;;7.12;77.30;101503.13;5013584;28;46040;-70
2023/01/12 06:08:56;;;;;;;;;2.25;0.25;;;;;7.12;77.40;101497.94;4997281;28;45402;-70
2023/01/12 06:14:07;;;;;;;;;1.50;1.00;;;;;7.11;77.17;101514.34;5001283;28;45586;-69
2023/01/12 06:16:37;;;;;;;;;1.00;0.00;;;;;6.98;77.09;101499.72;5010719;28;45589;-70
2023/01/12 06:19:03;;;;;;;;;0.00;0.00;;;;;6.91;77.11;101529.63;4997543;28;45463;-70
2023/01/12 06:21:30;;;;;;;;;1.00;1.00;;;;;6.83;77.77;101530.88;4997718;28;45480;-71
2023/01/12 06:23:56;;;;;;;;;67.25;54.50;;;;;6.76;77.94;101526.09;4997218;28;45706;-70
2023/01/12 06:26:21;;;;;;;;;60.75;47.25;;;;;6.72;78.32;101525.00;5003540;28;47043;-70
2023/01/12 06:28:47;;;;;;;;;28.25;26.50;;;;;6.41;78.48;101470.34;5006087;28;45457;-70
2023/01/12 06:31:13;;;;;;;;;13.00;11.50;;;;;6.70;78.22;101529.22;4995499;28;45547;-70
2023/01/12 06:33:39;;;;;;;;;8.00;7.50;;;;;6.71;78.57;101533.63;5015660;28;45352;-70
2023/01/12 06:36:05;;;;;;;;;14.75;14.00;;;;;6.70;78.01;101528.31;5002914;28;45541;-70
2023/01/12 06:38:33;;;;;;;;;17.75;17.00;;;;;6.71;78.29;101535.31;5014811;28;45312;-70
2023/01/12 06:41:06;;;;;;;;;13.00;13.00;;;;;6.67;78.19;101513.47;5011247;28;45359;-71
2023/01/12 06:43:32;;;;;;;;;3.00;3.00;;;;;6.69;77.69;101504.06;5000434;28;45579;-72
2023/01/12 06:45:58;;;;;;;;;6.50;3.00;;;;;6.69;77.76;101509.25;5017029;28;45471;-70
2023/01/12 06:48:24;;;;;;;;;9.00;7.75;;;;;6.70;77.76;101497.16;4998267;28;45433;-71
2023/01/12 06:50:59;;;;;;;;;8.00;7.50;;;;;6.71;77.45;101510.25;5003969;28;45356;-70
2023/01/12 06:53:24;;;;;;;;;5.50;3.00;;;;;6.72;77.45;101508.53;5005598;28;45477;-70
2023/01/12 06:55:50;;;;;;;;;0.25;0.00;;;;;6.71;77.16;101509.34;5013063;28;46007;-70
2023/01/12 06:58:16;;;;;;;;;2.00;1.00;;;;;6.42;77.60;101479.91;5006948;28;45485;-70
2023/01/12 07:00:42;;;;;;;;;0.75;0.75;;;;;6.64;77.38;101521.06;5016748;28;45850;-70
2023/01/12 07:03:15;;;;;;;;;9.00;7.25;;;;;6.41;77.61;101508.38;5000341;28;45674;-70
2023/01/12 07:05:40;;;;;;;;;9.25;6.25;;;;;6.54;77.84;101540.34;5008083;28;45515;-71
2023/01/12 07:08:06;;;;;;;;;9.75;6.00;;;;;6.47;77.98;101537.31;5008863;28;45473;-71
2023/01/12 07:10:31;;;;;;;;;34.00;30.50;;;;;6.50;77.95;101542.66;5000135;28;45564;-69
2023/01/12 07:12:59;;;;;;;;;26.50;24.75;;;;;6.48;78.18;101537.38;4981411;28;45321;-71
2023/01/12 07:15:25;;;;;;;;;10.50;10.25;;;;;6.52;77.93;101546.25;4997247;28;46007;-71
2023/01/12 07:17:54;;;;;;;;;10.25;8.00;;;;;6.54;77.78;101542.94;4995962;28;45424;-71
2023/01/12 07:20:20;;;;;;;;;56.25;45.00;;;;;6.56;77.72;101537.84;4995090;28;45762;-71
2023/01/12 07:22:45;;;;;;;;;25.75;23.25;;;;;6.56;78.36;101520.59;4994154;28;45450;-71
2023/01/12 07:25:11;;;;;;;;;13.00;12.50;;;;;6.51;77.56;101523.72;4996511;28;45973;-71
2023/01/12 07:27:36;;;;;;;;;28.75;26.50;;;;;6.63;77.54;101520.97;4996348;28;45443;-70
2023/01/12 07:30:02;;;;;;;;;12.00;8.25;;;;;6.66;77.37;101532.44;4995560;28;45378;-70
2023/01/12 07:32:28;;;;;;;;;10.25;7.00;;;;;6.70;77.43;101533.50;4996709;28;45396;-70
2023/01/12 07:34:54;;;;;;;;;30.75;29.00;;;;;6.77;76.87;101530.50;4993548;28;46373;-70
2023/01/12 07:37:19;;;;;;;;;16.75;14.00;;;;;6.59;76.65;101493.94;4997396;28;45826;-70
2023/01/12 07:39:45;;;;;;;;;6.50;6.25;;;;;6.83;76.87;101530.88;5000974;28;45288;-71
2023/01/12 07:42:23;;;;;;;;;5.00;4.25;;;;;6.85;76.93;101533.56;4999066;28;45381;-71
2023/01/12 07:44:48;;;;;;;;;5.50;5.25;;;;;6.83;76.88;101525.69;4995862;28;46320;-70
2023/01/12 07:47:14;;;;;;;;;7.50;6.00;;;;;6.78;76.75;101516.69;4997963;28;45481;-69
2023/01/12 07:49:39;;;;;;;;;4.50;3.25;;;;;6.90;76.39;101534.72;4999232;28;45799;-68
2023/01/12 07:52:06;;;;;;;;;6.50;6.00;;;;;6.94;76.08;101534.09;4998624;28;46994;-70
2023/01/12 07:54:36;;;;;;;;;15.50;12.75;;;;;6.77;76.21;101505.44;5000269;28;45437;-71
2023/01/12 07:57:02;;;;;;;;;24.75;19.00;;;;;6.71;76.17;101498.97;4995628;28;45597;-67
2023/01/12 07:59:27;;;;;;;;;52.50;41.75;;;;;6.97;75.90;101536.91;4999318;28;45370;-70
2023/01/12 08:01:54;;;;;;;;;43.50;36.00;;;;;6.91;76.22;101519.25;4998381;28;45466;-69
2023/01/12 08:04:22;;;;;;;;;49.75;39.00;;;;;7.09;75.99;101540.25;4997061;28;46224;-71
2023/01/12 08:06:47;;;;;;;;;31.75;26.75;;;;;7.14;75.72;101531.03;4999036;28;45576;-69
2023/01/12 08:09:14;;;;;;;;;11.25;10.25;;;;;7.25;75.40;101521.25;5000622;28;45471;-66
2023/01/12 08:11:39;;;;;;;;;12.25;12.00;;;;;7.35;75.55;101517.50;4999280;28;45668;-67
2023/01/12 08:14:05;;;;;;;;;10.00;10.00;;;;;7.46;75.24;101518.09;4997952;28;45439;-67
2023/01/12 08:16:39;;;;;;;;;12.50;10.00;;;;;7.56;74.95;101510.06;4999224;28;45368;-68
2023/01/12 08:19:17;;;;;;;;;10.50;8.50;;;;;7.68;74.14;101504.63;4999440;28;45377;-67
2023/01/12 08:21:49;;;;;;;;;9.75;8.25;;;;;7.73;74.11;101496.28;4998219;28;45415;-68
2023/01/12 08:24:20;;;;;;;;;19.00;17.50;;;;;7.85;73.48;101497.81;4993687;28;47493;-70
2023/01/12 08:26:49;;;;;;;;;7.25;6.25;;;;;7.96;73.39;101502.78;5001958;28;45694;-68
2023/01/12 08:29:30;;;;;;;;;4.00;3.00;;;;;8.05;73.54;101498.91;4998627;28;45597;-67
2023/01/12 08:32:07;;;;;;;;;3.75;3.00;;;;;8.10;72.85;101492.25;4999376;28;45574;-70
2023/01/12 08:34:34;;;;;;;;;11.75;9.50;;;;;8.13;72.54;101500.22;4998759;28;46201;-70
2023/01/12 08:37:05;;;;;;;;;26.25;22.50;;;;;8.06;72.44;101498.13;5000301;28;45526;-67
2023/01/12 08:39:34;;;;;;;;;8.50;8.00;;;;;7.99;72.95;101491.66;4999544;28;45688;-67
2023/01/12 08:41:59;;;;;;;;;9.00;8.00;;;;;7.79;73.14;101467.13;4997018;28;45501;-71
2023/01/12 08:44:30;;;;;;;;;69.00;54.00;;;;;7.88;73.07;101479.78;4997868;28;45540;-70
2023/01/12 08:46:55;;;;;;;;;128.75;118.75;;;;;7.95;72.99;101494.91;4997160;28;45559;-69
2023/01/12 08:49:25;;;;;;;;;55.50;46.00;;;;;7.92;72.58;101497.34;4997331;28;45538;-69
2023/01/12 08:51:51;;;;;;;;;40.25;37.00;;;;;7.87;73.13;101497.06;5012139;28;45485;-69
2023/01/12 08:54:18;;;;;;;;;25.25;23.50;;;;;7.73;72.79;101479.78;4998600;28;46129;-69
2023/01/12 08:56:44;;;;;;;;;75.75;61.50;;;;;7.89;73.13;101492.84;4997596;28;45515;-70
2023/01/12 08:59:10;;;;;;;;;7.75;6.75;;;;;7.96;72.84;101491.50;4997299;28;45494;-70
2023/01/12 09:01:35;;;;;;;;;4.50;2.50;;;;;7.96;72.19;101484.59;4999820;28;45651;-69
2023/01/12 09:04:01;;;;;;;;;4.00;4.00;;;;;8.00;72.32;101493.47;5000583;28;48029;-69
2023/01/12 09:06:34;;;;;;;;;20.00;17.75;;;;;8.06;72.12;101491.19;4997861;28;45502;-70
2023/01/12 09:09:03;;;;;;;;;24.00;24.00;;;;;7.94;72.23;101457.59;4998429;28;45504;-70
2023/01/12 09:11:30;;;;;;;;;43.00;38.25;;;;;8.24;72.65;101493.91;5010241;28;45423;-71
2023/01/12 09:13:57;;;;;;;;;16.50;15.00;;;;;8.28;71.73;101466.34;5010301;28;45291;-71
2023/01/12 09:16:24;;;;;;;;;29.25;28.00;;;;;8.56;71.50;101495.66;5000437;28;45919;-71
2023/01/12 09:18:50;;;;;;;;;94.00;80.33;;;;;8.61;71.87;101505.44;5000125;28;45538;-71
2023/01/12 09:21:18;;;;;;;;;74.25;57.25;;;;;8.73;71.93;101504.41;5009220;28;45514;-72
2023/01/12 09:23:44;;;;;;;;;60.00;49.50;;;;;8.94;71.22;101488.97;5009764;28;45503;-72
2023/01/12 09:26:12;;;;;;;;;21.00;20.75;;;;;9.04;71.15;101463.38;5006945;28;45590;-71
2023/01/12 09:28:38;;;;;;;;;10.50;9.50;;;;;9.39;70.41;101492.94;5003963;28;45519;-74
2023/01/12 09:31:07;;;;;;;;;10.75;9.25;;;;;9.66;69.79;101488.19;5000133;28;45515;-71
2023/01/12 09:33:33;;;;;;;;;11.50;11.50;;;;;10.45;69.21;101483.25;4998042;28;45376;-69
2023/01/12 09:36:06;;;;;;;;;10.00;8.00;;;;;11.30;67.10;101479.06;4997513;28;45478;-72
2023/01/12 09:38:35;;;;;;;;;12.50;10.50;;;;;11.73;65.72;101466.00;4997997;28;45689;-70
2023/01/12 09:41:08;;;;;;;;;12.75;10.00;;;;;11.86;64.49;101458.69;4997911;28;45525;-71
2023/01/12 09:49:42;;;;;;;;;16.25;15.50;;;;;12.71;62.98;101447.94;4999424;28;45511;-71
2023/01/12 09:52:19;;;;;;;;;33.00;31.75;;;;;13.00;60.26;101452.41;4997731;28;45424;-71
2023/01/12 09:54:48;;;;;;;;;12.75;12.75;;;;;13.35;60.11;101442.22;5011520;28;45948;-71
2023/01/12 09:58:04;;;;;;;;;27.00;25.25;;;;;13.68;58.58;101445.06;4998316;28;45609;-71
2023/01/12 10:00:30;;;;;;;;;39.50;33.75;;;;;13.82;58.85;101437.63;4976046;28;45563;-72
2023/01/12 10:03:09;;;;;;;;;23.25;21.25;;;;;13.87;59.64;101441.28;5011057;28;45430;-71
2023/01/12 10:05:52;;;;;;;;;32.00;30.75;;;;;13.96;57.67;101446.81;5004722;28;46462;-72
2023/01/12 10:08:57;;;;;;;;;21.50;21.00;;;;;13.99;58.61;101443.41;5003486;28;45407;-71
2023/01/12 10:11:37;;;;;;;;;13.75;10.25;;;;;14.07;57.85;101447.16;5001251;28;45530;-71
2023/01/12 10:14:33;;;;;;;;;6.33;5.00;;;;;14.15;56.78;101453.53;5009381;28;45438;-71
2023/01/12 10:17:26;;;;;;;;;13.75;13.25;;;;;14.20;56.60;101451.91;4996656;28;46126;-71
2023/01/12 10:20:07;;;;;;;;;2.00;2.00;;;;;14.04;56.90;101447.91;4997037;28;45557;-71
2023/01/12 10:22:52;;;;;;;;;2.00;1.33;;;;;13.68;56.86;101421.44;5011331;28;45705;-71
2023/01/12 10:25:36;;;;;;;;;2.00;1.00;;;;;13.73;55.77;101454.00;5016625;28;45525;-72
2023/01/12 10:28:13;;;;;;;;;10.33;9.33;;;;;13.71;56.60;101455.69;5012794;28;45360;-71
2023/01/12 10:30:40;;;;;;;;;2.33;2.00;;;;;13.68;56.59;101451.19;5000648;28;45514;-69
2023/01/12 10:33:17;;;;;;;;;1.00;1.00;;;;;13.62;56.20;101440.50;5013401;28;45665;-71
2023/01/12 10:35:59;;;;;;;;;8.00;8.00;;;;;13.68;57.07;101447.69;5007416;28;45537;-71
2023/01/12 10:38:33;;;;;;;;;7.00;7.00;;;;;13.94;56.97;101432.72;5009194;28;45291;-71
2023/01/12 10:41:17;;;;;;;;;12.50;12.00;;;;;14.11;55.31;101431.50;5011879;28;45613;-71
2023/01/12 10:43:45;;;;;;;;;8.00;8.00;;;;;14.28;54.56;101416.25;5004180;28;45430;-71
2023/01/12 10:46:15;;;;;;;;;7.00;4.00;;;;;14.39;54.60;101411.28;4980665;28;45597;-71
2023/01/12 10:48:48;;;;;;;;;7.00;5.67;;;;;14.46;54.94;101409.69;5000972;28;46505;-71
2023/01/12 10:51:33;;;;;;;;;7.67;7.00;;;;;14.62;55.99;101411.06;5007880;28;45327;-71
2023/01/12 10:54:09;;;;;;;;;7.00;7.00;;;;;14.84;55.43;101410.81;5012161;28;45737;-72
2023/01/12 10:56:41;;;;;;;;;6.00;6.00;;;;;14.14;55.07;101270.41;5012436;28;45525;-72
2023/01/12 10:59:13;;;;;;;;;10.00;10.00;;;;;14.93;55.60;101411.88;5013855;28;46128;-73
2023/01/12 11:01:46;;;;;;;;;55.00;43.50;;;;;15.02;55.45;101405.13;5005433;28;45443;-73
2023/01/12 11:04:19;;;;;;;;;16.25;14.50;;;;;14.91;56.27;101391.69;5000021;28;45649;-72
2023/01/12 11:06:58;;;;;;;;;7.33;7.00;;;;;14.97;56.49;101382.16;5008415;28;45474;-73
2023/01/12 11:09:26;;;;;;;;;6.67;3.00;;;;;15.02;56.11;101377.91;4997781;28;46364;-73
2023/01/12 11:11:53;;;;;;;;;5.33;4.33;;;;;15.02;55.83;101373.56;5012618;28;45719;-73
2023/01/12 11:14:32;;;;;;;;;7.00;7.00;;;;;14.96;55.63;101357.63;5010493;28;45481;-73
2023/01/12 11:17:29;;;;;;;;;3.00;3.00;;;;;14.99;54.67;101357.66;4998887;28;45554;-74
2023/01/12 11:19:56;;;;;;;;;4.00;3.00;;;;;14.98;53.80;101361.16;4980097;28;45368;-73
2023/01/12 11:22:26;;;;;;;;;13.00;11.25;;;;;14.82;54.86;101345.81;5014456;28;45419;-73
2023/01/12 11:25:22;;;;;;;;;33.75;29.25;;;;;14.99;54.94;101351.53;4997084;28;45594;-73
2023/01/12 11:27:56;;;;;;;;;16.50;12.00;;;;;15.06;54.76;101348.16;5011070;28;45428;-72
2023/01/12 11:30:51;;;;;;;;;10.00;9.33;;;;;15.15;53.87;101337.00;4986183;28;46334;-70
2023/01/12 11:33:41;;;;;;;;;9.00;9.00;;;;;15.17;54.71;101309.84;5003596;28;45584;-72
2023/01/12 11:36:06;;;;;;;;;12.33;11.00;;;;;15.43;54.08;101323.59;5012579;28;45440;-72
2023/01/12 11:38:40;;;;;;;;;12.67;12.00;;;;;15.52;53.52;101312.41;4996998;28;45410;-72
2023/01/12 11:41:33;;;;;;;;;10.00;7.67;;;;;15.59;53.99;101313.44;4996690;28;46120;-72
2023/01/12 11:44:21;;;;;;;;;5.00;4.33;;;;;15.72;54.39;101299.66;4998423;28;45405;-71
2023/01/12 11:47:02;;;;;;;;;6.00;3.00;;;;;15.84;53.35;101299.94;5004186;28;45296;-71
2023/01/12 11:49:27;;;;;;;;;6.00;5.00;;;;;15.94;53.06;101300.16;4994809;28;45506;-74
2023/01/12 11:51:56;;;;;;;;;53.25;40.50;;;;;16.03;53.00;101300.31;4996765;28;46064;-71
2023/01/12 11:54:23;;;;;;;;;53.00;39.25;;;;;16.06;51.81;101285.44;4994838;28;45606;-72
2023/01/12 11:56:58;;;;;;;;;9.67;8.33;;;;;16.16;53.45;101293.56;4995608;28;45622;-73
2023/01/12 11:59:44;;;;;;;;;5.00;5.00;;;;;16.23;53.43;101295.41;4995929;28;45643;-73
2023/01/12 12:02:19;;;;;;;;;15.00;10.33;;;;;16.29;53.92;101293.81;4996888;28;45607;-73
2023/01/12 12:05:18;;;;;;;;;4.00;2.00;;;;;16.33;53.37;101286.81;4980003;28;45574;-72
2023/01/12 12:07:49;;;;;;;;;11.67;11.33;;;;;16.33;53.11;101289.44;5007417;28;45396;-72
2023/01/12 12:10:38;;;;;;;;;3.00;2.00;;;;;16.22;52.55;101277.84;5003515;28;45436;-73